createdAt,value
2019-03-21T00:03:24.830Z,99.79
2019-03-21T00:08:33.101Z,97.48
2019-03-21T00:13:41.617Z,94.80
2019-03-21T00:18:50.084Z,97.84
2019-03-21T00:23:58.418Z,102.61
2019-03-21T00:29:06.779Z,100.86
2019-03-21T00:34:15.247Z,96.24
2019-03-21T00:39:32.399Z,100.97
2019-03-21T00:44:31.249Z,104.58
2019-03-21T00:49:39.587Z,100.56
2019-03-21T00:54:47.900Z,100.87
2019-03-21T00:59:56.550Z,99.99
2019-03-21T01:05:04.926Z,101.17
2019-03-21T01:10:13.181Z,97.88
2019-03-21T01:15:21.858Z,97.84
2019-03-21T01:20:30.143Z,100.86
2019-03-21T01:25:38.626Z,98.30
2019-03-21T01:30:46.969Z,97.78
2019-03-21T01:35:55.566Z,94.78
2019-03-21T01:41:03.767Z,98.19
2019-03-21T01:46:12.112Z,95.87
2019-03-21T01:51:20.497Z,91.37
2019-03-21T01:56:28.804Z,91.77
2019-03-21T02:01:37.954Z,96.97
2019-03-21T02:06:46.241Z,90.78
2019-03-21T02:11:54.462Z,91.57
2019-03-21T02:17:03.109Z,88.77
2019-03-21T02:22:11.371Z,90.58
2019-03-21T02:27:19.942Z,89.25
2019-03-21T02:32:29.158Z,82.66
2019-03-21T02:37:37.598Z,81.73
2019-03-21T02:42:45.953Z,84.46
2019-03-21T02:47:54.846Z,81.33
2019-03-21T02:53:02.919Z,83.41
2019-03-21T02:58:11.425Z,83.22
2019-03-21T03:03:19.805Z,81.83
2019-03-21T03:08:28.114Z,81.10
2019-03-21T03:13:36.345Z,75.79
2019-03-21T03:18:44.678Z,80.39
2019-03-21T03:23:52.899Z,75.26
2019-03-21T03:29:01.206Z,78.57
2019-03-21T03:34:09.596Z,77.64
2019-03-21T03:39:18.339Z,77.23
2019-03-21T03:44:26.675Z,75.93
2019-03-21T03:49:34.973Z,80.76
2019-03-21T03:54:43.330Z,77.89
2019-03-21T03:59:51.914Z,77.54
2019-03-21T04:05:00.499Z,78.60
2019-03-21T04:10:08.850Z,76.31
2019-03-21T04:15:17.875Z,77.63
2019-03-21T04:20:26.324Z,79.18
2019-03-21T04:25:34.662Z,75.68
2019-03-21T04:30:43.709Z,74.80
2019-03-21T04:35:52.356Z,73.84
2019-03-21T04:41:00.899Z,74.09
2019-03-21T04:46:09.221Z,69.09
2019-03-21T04:51:17.676Z,62.68
2019-03-21T04:56:26.010Z,63.92
2019-03-21T05:01:35.335Z,58.55
2019-03-21T05:06:43.513Z,59.73
2019-03-21T05:11:51.921Z,56.71
2019-03-21T05:17:00.161Z,58.08
2019-03-21T05:22:08.552Z,56.38
2019-03-21T05:27:17.176Z,56.88
2019-03-21T05:32:25.626Z,57.25
2019-03-21T05:37:34.635Z,57.79
2019-03-21T05:42:42.986Z,62.69
2019-03-21T05:47:51.365Z,56.97
2019-03-21T05:52:59.757Z,61.64
2019-03-21T05:58:07.918Z,57.34
2019-03-21T06:03:16.917Z,60.94
2019-03-21T06:08:25.209Z,61.05
2019-03-21T06:13:33.885Z,61.90
2019-03-21T06:18:42.330Z,61.27
2019-03-21T06:23:50.746Z,56.62
2019-03-21T06:28:59.369Z,53.71
2019-03-21T06:34:07.921Z,57.40
2019-03-21T06:39:16.161Z,55.07
2019-03-21T06:44:25.091Z,59.86
2019-03-21T06:49:33.391Z,59.34
2019-03-21T06:54:41.922Z,56.40
2019-03-21T06:59:50.236Z,50.81
2019-03-21T07:04:58.538Z,46.52
2019-03-21T07:10:06.972Z,44.83
2019-03-21T07:15:15.446Z,42.67
2019-03-21T07:20:23.630Z,43.55
2019-03-21T07:25:32.395Z,44.70
2019-03-21T07:30:40.923Z,45.15
2019-03-21T07:35:50.136Z,46.41
2019-03-21T07:40:58.475Z,46.06
2019-03-21T07:46:06.810Z,43.09
2019-03-21T07:51:15.128Z,46.49
2019-03-21T07:56:25.109Z,46.01
2019-03-21T08:01:32.843Z,47.30
2019-03-21T08:06:32.012Z,46.12
2019-03-21T08:11:40.377Z,49.57
2019-03-21T08:16:49.031Z,49.73
2019-03-21T08:21:56.072Z,45.11
2019-03-21T08:27:04.510Z,41.07
2019-03-21T08:32:12.858Z,35.98
2019-03-21T08:37:21.561Z,30.76
2019-03-21T08:42:29.906Z,31.62
2019-03-21T08:47:38.342Z,29.49
2019-03-21T08:52:46.542Z,29.28
2019-03-21T08:57:55.273Z,29.30
2019-03-21T09:03:03.573Z,29.06
2019-03-21T09:08:12.021Z,27.29
2019-03-21T09:13:20.717Z,28.06
2019-03-21T09:18:29.173Z,26.72
2019-03-21T09:23:37.465Z,27.93
2019-03-21T09:28:46.058Z,29.20
2019-03-21T09:33:54.184Z,28.30
2019-03-21T09:39:03.103Z,24.71
2019-03-21T09:44:11.669Z,25.78
2019-03-21T09:49:20.382Z,26.77
2019-03-21T09:54:28.677Z,27.94
2019-03-21T09:59:37.140Z,26.17
2019-03-21T10:04:45.360Z,27.79
2019-03-21T10:09:54.353Z,27.67
2019-03-21T10:15:02.659Z,28.81
2019-03-21T10:20:11.382Z,27.75
2019-03-21T10:25:19.872Z,27.83
2019-03-21T10:30:28.955Z,28.94
2019-03-21T10:35:37.257Z,28.16
2019-03-21T10:40:45.753Z,27.76
2019-03-21T10:45:54.191Z,27.42
2019-03-21T10:51:02.986Z,30.13
2019-03-21T10:56:11.147Z,27.13
2019-03-21T11:01:19.621Z,30.23
2019-03-21T11:06:28.839Z,29.36
2019-03-21T11:11:37.309Z,28.98
2019-03-21T11:16:45.981Z,30.21
2019-03-21T11:22:05.731Z,28.67
2019-03-21T11:27:02.640Z,30.65
2019-03-21T11:32:11.143Z,29.26
2019-03-21T11:37:19.765Z,28.64
2019-03-21T11:42:28.237Z,26.66
2019-03-21T11:47:41.695Z,26.33
2019-03-21T11:52:44.710Z,25.36
2019-03-21T11:57:52.994Z,27.09
2019-03-21T12:03:04.142Z,24.07
2019-03-21T12:08:09.267Z,24.19
2019-03-21T12:13:17.875Z,22.37
2019-03-21T12:18:26.405Z,22.03
2019-03-21T12:23:34.929Z,21.32
2019-03-21T12:28:43.205Z,19.38
2019-03-21T12:33:52.259Z,19.24
2019-03-21T12:39:00.712Z,19.57
2019-03-21T12:44:09.273Z,18.91
2019-03-21T12:49:17.616Z,21.31
2019-03-21T12:54:26.186Z,18.62
2019-03-21T12:59:34.553Z,20.34
2019-03-21T13:04:43.126Z,19.55
2019-03-21T13:09:51.512Z,19.65
2019-03-21T13:14:59.978Z,22.42
2019-03-21T13:20:08.657Z,19.62
2019-03-21T13:25:17.373Z,21.41
2019-03-21T13:30:25.785Z,20.72
2019-03-21T13:35:34.344Z,20.66
2019-03-21T13:40:42.964Z,19.56
2019-03-21T13:45:51.347Z,19.65
2019-03-21T13:50:59.779Z,20.73
2019-03-21T13:56:08.561Z,23.14
2019-03-21T14:01:16.794Z,21.09
2019-03-21T14:06:26.037Z,21.61
2019-03-21T14:11:34.324Z,20.67
2019-03-21T14:16:43.191Z,20.39
2019-03-21T14:21:51.499Z,19.68
2019-03-21T14:27:01.138Z,22.27
2019-03-21T14:32:09.576Z,20.61
2019-03-21T14:37:18.167Z,21.87
2019-03-21T14:42:27.337Z,21.63
2019-03-21T14:47:36.639Z,23.12
2019-03-21T14:52:44.406Z,20.25
2019-03-21T14:57:52.958Z,20.43
2019-03-21T15:03:01.521Z,22.36
2019-03-21T15:08:10.416Z,20.82
2019-03-21T15:13:18.827Z,20.02
2019-03-21T15:18:27.258Z,21.09
2019-03-21T15:23:40.762Z,21.53
2019-03-21T15:28:43.385Z,23.53
2019-03-21T15:33:51.685Z,23.67
2019-03-21T15:39:00.590Z,23.42
2019-03-21T15:44:09.013Z,25.57
2019-03-21T15:49:17.490Z,24.56
2019-03-21T15:54:25.819Z,22.92
2019-03-21T15:59:34.423Z,23.38
2019-03-21T16:04:42.995Z,21.43
2019-03-21T16:09:51.505Z,22.37
2019-03-21T16:14:59.838Z,22.87
2019-03-21T16:20:08.731Z,22.71
2019-03-21T16:25:17.034Z,24.55
2019-03-21T16:30:25.765Z,24.54
2019-03-21T16:35:34.119Z,23.14
2019-03-21T16:40:42.618Z,24.68
2019-03-21T16:45:52.183Z,23.64
2019-03-21T16:51:02.916Z,24.65
2019-03-21T16:56:08.842Z,22.86
2019-03-21T17:01:17.430Z,26.45
2019-03-21T17:06:25.632Z,27.84
2019-03-21T17:11:33.991Z,25.59
2019-03-21T17:16:42.264Z,25.77
2019-03-21T17:21:50.924Z,26.11
2019-03-21T17:26:59.562Z,24.68
2019-03-21T17:32:08.207Z,26.47
2019-03-21T17:37:16.611Z,26.31
2019-03-21T17:42:25.273Z,26.26
2019-03-21T17:47:33.845Z,27.14
2019-03-21T17:52:42.346Z,25.18
2019-03-21T17:57:50.830Z,27.20
2019-03-21T18:02:57.805Z,28.36
2019-03-21T18:08:06.334Z,28.44
2019-03-21T18:13:15.034Z,28.95
2019-03-21T18:18:23.563Z,28.76
2019-03-21T18:23:32.321Z,27.95
2019-03-21T18:28:40.786Z,29.64
2019-03-21T18:33:49.403Z,30.16
2019-03-21T18:38:59.718Z,28.62
2019-03-21T18:44:05.438Z,32.45
2019-03-21T18:49:13.824Z,33.29
2019-03-21T18:54:22.199Z,34.03
2019-03-21T18:59:30.459Z,31.79
2019-03-21T19:04:38.969Z,33.66
2019-03-21T19:09:47.223Z,39.56
2019-03-21T19:14:55.740Z,35.97
2019-03-21T19:20:04.086Z,34.28
2019-03-21T19:25:18.366Z,35.18
2019-03-21T19:30:20.281Z,36.44
2019-03-21T19:35:28.805Z,36.36
2019-03-21T19:40:37.107Z,34.99
2019-03-21T19:45:44.242Z,38.04
2019-03-21T19:50:53.185Z,34.92
2019-03-21T19:56:08.538Z,35.87
2019-03-21T20:01:09.230Z,33.78
2019-03-21T20:06:18.290Z,34.79
2019-03-21T20:11:26.705Z,34.99
2019-03-21T20:16:35.174Z,35.54
2019-03-21T20:21:48.022Z,37.43
2019-03-21T20:26:52.573Z,36.48
2019-03-21T20:32:00.979Z,37.65
2019-03-21T20:37:09.578Z,37.40
2019-03-21T20:42:18.017Z,37.33
2019-03-21T20:47:26.486Z,36.23
2019-03-21T20:52:34.714Z,35.65
2019-03-21T20:57:43.341Z,35.97
2019-03-21T21:02:51.554Z,34.63
2019-03-21T21:08:00.192Z,33.42
2019-03-21T21:13:08.386Z,36.23
2019-03-21T21:18:16.775Z,33.19
2019-03-21T21:23:25.079Z,34.27
2019-03-21T21:28:33.728Z,32.86
2019-03-21T21:33:42.011Z,32.41
2019-03-21T21:38:50.491Z,35.26
2019-03-21T21:43:58.758Z,34.20
2019-03-21T21:49:07.288Z,32.19
2019-03-21T21:54:15.889Z,34.74
2019-03-21T21:59:24.309Z,41.95
2019-03-21T22:04:32.571Z,42.11
2019-03-21T22:09:40.970Z,42.96
2019-03-21T22:14:50.483Z,42.14
2019-03-21T22:19:58.952Z,35.58
2019-03-21T22:25:07.277Z,40.09
2019-03-21T22:30:15.711Z,38.74
2019-03-21T22:35:24.984Z,36.83
2019-03-21T22:40:33.365Z,38.62
2019-03-21T22:45:41.743Z,35.74
2019-03-21T22:50:50.325Z,34.90
2019-03-21T22:55:58.674Z,34.93
2019-03-21T23:01:07.143Z,33.96
2019-03-21T23:06:15.486Z,36.95
2019-03-21T23:11:23.954Z,35.46
2019-03-21T23:16:32.265Z,36.58
2019-03-21T23:21:40.768Z,40.42
2019-03-21T23:26:53.131Z,38.40
2019-03-21T23:31:57.341Z,40.39
2019-03-21T23:37:05.670Z,39.44
2019-03-21T23:42:14.253Z,42.70
2019-03-21T23:47:22.532Z,40.83
2019-03-21T23:52:31.110Z,39.63
2019-03-21T23:57:40.317Z,42.22
